sensor_id;sensor_type;location;lat;lon;timestamp;temperature;humidity
10443;DHT22;5269;51.146;16.986;2023-05-16T00:00:09;11.00;99.90
10443;DHT22;5269;51.146;16.986;2023-05-16T00:02:37;11.00;99.90
10443;DHT22;5269;51.146;16.986;2023-05-16T00:05:08;11.00;99.90
10443;DHT22;5269;51.146;16.986;2023-05-16T00:07:36;11.00;99.90
10443;DHT22;5269;51.146;16.986;2023-05-16T00:10:07;11.00;99.90
10443;DHT22;5269;51.146;16.986;2023-05-16T00:12:39;11.00;99.90
10443;DHT22;5269;51.146;16.986;2023-05-16T00:15:17;11.00;99.90
10443;DHT22;5269;51.146;16.986;2023-05-16T00:17:46;11.00;99.90
10443;DHT22;5269;51.146;16.986;2023-05-16T00:20:17;11.00;99.90
10443;DHT22;5269;51.146;16.986;2023-05-16T00:22:47;11.00;99.90
10443;DHT22;5269;51.146;16.986;2023-05-16T00:25:16;11.00;99.90
10443;DHT22;5269;51.146;16.986;2023-05-16T00:27:45;11.10;99.90
10443;DHT22;5269;51.146;16.986;2023-05-16T00:30:20;11.00;99.90
10443;DHT22;5269;51.146;16.986;2023-05-16T00:32:50;11.00;99.90
10443;DHT22;5269;51.146;16.986;2023-05-16T00:35:26;11.00;99.90
10443;DHT22;5269;51.146;16.986;2023-05-16T00:37:59;11.10;99.90
10443;DHT22;5269;51.146;16.986;2023-05-16T00:40:36;11.10;99.90
10443;DHT22;5269;51.146;16.986;2023-05-16T00:43:18;11.10;99.90
10443;DHT22;5269;51.146;16.986;2023-05-16T00:45:46;11.10;99.90
10443;DHT22;5269;51.146;16.986;2023-05-16T00:48:15;11.10;99.90
10443;DHT22;5269;51.146;16.986;2023-05-16T00:50:48;11.10;99.90
10443;DHT22;5269;51.146;16.986;2023-05-16T00:53:38;11.10;99.90
10443;DHT22;5269;51.146;16.986;2023-05-16T00:56:08;11.10;99.90
10443;DHT22;5269;51.146;16.986;2023-05-16T00:58:36;11.10;99.90
10443;DHT22;5269;51.146;16.986;2023-05-16T01:01:07;11.10;99.90
10443;DHT22;5269;51.146;16.986;2023-05-16T01:03:38;11.00;99.90
10443;DHT22;5269;51.146;16.986;2023-05-16T01:06:08;11.00;99.90
10443;DHT22;5269;51.146;16.986;2023-05-16T01:08:36;11.10;99.90
10443;DHT22;5269;51.146;16.986;2023-05-16T01:11:15;11.20;99.90
10443;DHT22;5269;51.146;16.986;2023-05-16T01:13:50;11.20;99.90
10443;DHT22;5269;51.146;16.986;2023-05-16T01:16:29;11.30;99.90
10443;DHT22;5269;51.146;16.986;2023-05-16T01:19:13;11.20;99.90
10443;DHT22;5269;51.146;16.986;2023-05-16T01:21:48;11.30;99.90
10443;DHT22;5269;51.146;16.986;2023-05-16T01:24:25;11.20;99.90
10443;DHT22;5269;51.146;16.986;2023-05-16T01:26:57;11.20;99.90
10443;DHT22;5269;51.146;16.986;2023-05-16T01:29:24;11.20;99.90
10443;DHT22;5269;51.146;16.986;2023-05-16T01:31:57;11.20;99.90
10443;DHT22;5269;51.146;16.986;2023-05-16T01:34:24;11.10;99.90
10443;DHT22;5269;51.146;16.986;2023-05-16T01:36:57;11.10;99.90
10443;DHT22;5269;51.146;16.986;2023-05-16T01:39:32;11.10;99.90
10443;DHT22;5269;51.146;16.986;2023-05-16T01:42:16;11.10;99.90
10443;DHT22;5269;51.146;16.986;2023-05-16T01:44:49;11.10;99.90
10443;DHT22;5269;51.146;16.986;2023-05-16T01:47:28;11.10;99.90
10443;DHT22;5269;51.146;16.986;2023-05-16T01:50:19;11.10;99.90
10443;DHT22;5269;51.146;16.986;2023-05-16T01:52:59;11.10;99.90
10443;DHT22;5269;51.146;16.986;2023-05-16T01:55:48;11.00;99.90
10443;DHT22;5269;51.146;16.986;2023-05-16T01:58:35;11.10;99.90
10443;DHT22;5269;51.146;16.986;2023-05-16T02:01:08;11.00;99.90
10443;DHT22;5269;51.146;16.986;2023-05-16T02:03:36;11.10;99.90
10443;DHT22;5269;51.146;16.986;2023-05-16T02:06:03;11.10;99.90
10443;DHT22;5269;51.146;16.986;2023-05-16T02:08:34;11.00;99.90
10443;DHT22;5269;51.146;16.986;2023-05-16T02:11:01;11.00;99.90
10443;DHT22;5269;51.146;16.986;2023-05-16T02:13:29;11.10;99.90
10443;DHT22;5269;51.146;16.986;2023-05-16T02:15:56;11.10;99.90
10443;DHT22;5269;51.146;16.986;2023-05-16T02:18:29;11.00;99.90
10443;DHT22;5269;51.146;16.986;2023-05-16T02:21:05;11.00;99.90
10443;DHT22;5269;51.146;16.986;2023-05-16T02:23:37;10.90;99.90
10443;DHT22;5269;51.146;16.986;2023-05-16T02:26:06;10.80;99.90
10443;DHT22;5269;51.146;16.986;2023-05-16T02:28:36;10.80;99.90
10443;DHT22;5269;51.146;16.986;2023-05-16T02:31:06;10.80;99.90
10443;DHT22;5269;51.146;16.986;2023-05-16T02:33:33;10.70;99.90
10443;DHT22;5269;51.146;16.986;2023-05-16T02:36:00;10.70;99.90
10443;DHT22;5269;51.146;16.986;2023-05-16T02:38:27;10.60;99.90
10443;DHT22;5269;51.146;16.986;2023-05-16T02:40:54;10.70;99.90
10443;DHT22;5269;51.146;16.986;2023-05-16T02:43:20;10.70;99.90
10443;DHT22;5269;51.146;16.986;2023-05-16T02:45:49;10.70;99.90
10443;DHT22;5269;51.146;16.986;2023-05-16T02:48:16;10.80;99.90
10443;DHT22;5269;51.146;16.986;2023-05-16T02:50:48;10.70;99.90
10443;DHT22;5269;51.146;16.986;2023-05-16T02:53:17;10.70;99.90
10443;DHT22;5269;51.146;16.986;2023-05-16T02:55:49;10.60;99.90
10443;DHT22;5269;51.146;16.986;2023-05-16T02:58:29;10.60;99.90
10443;DHT22;5269;51.146;16.986;2023-05-16T03:01:09;10.60;99.90
10443;DHT22;5269;51.146;16.986;2023-05-16T03:03:48;10.60;99.90
10443;DHT22;5269;51.146;16.986;2023-05-16T03:06:17;10.50;99.90
10443;DHT22;5269;51.146;16.986;2023-05-16T03:08:45;10.40;99.90
10443;DHT22;5269;51.146;16.986;2023-05-16T03:11:16;10.40;99.90
10443;DHT22;5269;51.146;16.986;2023-05-16T03:13:48;10.30;99.90
10443;DHT22;5269;51.146;16.986;2023-05-16T03:16:19;10.30;99.90
10443;DHT22;5269;51.146;16.986;2023-05-16T03:18:49;10.20;99.90
10443;DHT22;5269;51.146;16.986;2023-05-16T03:21:17;10.20;99.90
10443;DHT22;5269;51.146;16.986;2023-05-16T03:23:49;10.10;99.90
10443;DHT22;5269;51.146;16.986;2023-05-16T03:26:19;10.00;99.90
10443;DHT22;5269;51.146;16.986;2023-05-16T03:28:47;10.10;99.90
10443;DHT22;5269;51.146;16.986;2023-05-16T03:31:14;10.10;99.90
10443;DHT22;5269;51.146;16.986;2023-05-16T03:33:44;10.00;99.90
10443;DHT22;5269;51.146;16.986;2023-05-16T03:36:13;9.90;99.90
10443;DHT22;5269;51.146;16.986;2023-05-16T03:38:40;9.80;99.90
10443;DHT22;5269;51.146;16.986;2023-05-16T03:41:07;9.80;99.90
10443;DHT22;5269;51.146;16.986;2023-05-16T03:43:36;9.80;99.90
10443;DHT22;5269;51.146;16.986;2023-05-16T03:46:06;9.80;99.90
10443;DHT22;5269;51.146;16.986;2023-05-16T03:48:36;9.90;99.90
10443;DHT22;5269;51.146;16.986;2023-05-16T03:51:05;10.00;99.90
10443;DHT22;5269;51.146;16.986;2023-05-16T03:53:33;10.10;99.90
10443;DHT22;5269;51.146;16.986;2023-05-16T03:56:04;10.10;99.90
10443;DHT22;5269;51.146;16.986;2023-05-16T03:58:31;10.10;99.90
10443;DHT22;5269;51.146;16.986;2023-05-16T04:01:07;10.20;99.90
10443;DHT22;5269;51.146;16.986;2023-05-16T04:03:36;10.30;99.90
10443;DHT22;5269;51.146;16.986;2023-05-16T04:06:06;10.30;99.90
10443;DHT22;5269;51.146;16.986;2023-05-16T04:08:36;10.40;99.90
10443;DHT22;5269;51.146;16.986;2023-05-16T04:11:06;10.40;99.90
10443;DHT22;5269;51.146;16.986;2023-05-16T04:13:33;10.50;99.90
10443;DHT22;5269;51.146;16.986;2023-05-16T04:15:59;10.50;99.90
10443;DHT22;5269;51.146;16.986;2023-05-16T04:18:36;10.50;99.90
10443;DHT22;5269;51.146;16.986;2023-05-16T04:21:08;10.50;99.90
10443;DHT22;5269;51.146;16.986;2023-05-16T04:23:39;10.50;99.90
10443;DHT22;5269;51.146;16.986;2023-05-16T04:26:06;10.60;99.90
10443;DHT22;5269;51.146;16.986;2023-05-16T04:28:33;10.70;99.90
10443;DHT22;5269;51.146;16.986;2023-05-16T04:31:00;10.80;99.90
10443;DHT22;5269;51.146;16.986;2023-05-16T04:33:27;10.90;99.90
10443;DHT22;5269;51.146;16.986;2023-05-16T04:35:57;11.00;99.90
10443;DHT22;5269;51.146;16.986;2023-05-16T04:38:27;11.10;99.90
10443;DHT22;5269;51.146;16.986;2023-05-16T04:41:00;11.20;99.90
10443;DHT22;5269;51.146;16.986;2023-05-16T04:43:37;11.40;99.90
10443;DHT22;5269;51.146;16.986;2023-05-16T04:46:07;11.40;99.90
10443;DHT22;5269;51.146;16.986;2023-05-16T04:48:36;11.40;99.90
10443;DHT22;5269;51.146;16.986;2023-05-16T04:51:17;11.50;99.90
10443;DHT22;5269;51.146;16.986;2023-05-16T04:53:48;11.60;99.90
10443;DHT22;5269;51.146;16.986;2023-05-16T04:56:20;11.70;99.90
10443;DHT22;5269;51.146;16.986;2023-05-16T04:58:56;11.80;99.90
10443;DHT22;5269;51.146;16.986;2023-05-16T05:01:28;11.90;99.90
10443;DHT22;5269;51.146;16.986;2023-05-16T05:03:58;12.00;99.90
10443;DHT22;5269;51.146;16.986;2023-05-16T05:06:27;12.10;99.90
10443;DHT22;5269;51.146;16.986;2023-05-16T05:09:00;12.30;99.90
10443;DHT22;5269;51.146;16.986;2023-05-16T05:11:37;12.20;99.90
10443;DHT22;5269;51.146;16.986;2023-05-16T05:14:06;12.10;99.90
10443;DHT22;5269;51.146;16.986;2023-05-16T05:16:36;12.20;99.90
10443;DHT22;5269;51.146;16.986;2023-05-16T05:19:08;12.30;99.90
10443;DHT22;5269;51.146;16.986;2023-05-16T05:21:36;12.40;99.90
10443;DHT22;5269;51.146;16.986;2023-05-16T05:24:08;12.50;99.90
10443;DHT22;5269;51.146;16.986;2023-05-16T05:26:36;12.60;99.90
10443;DHT22;5269;51.146;16.986;2023-05-16T05:29:06;12.60;99.90
10443;DHT22;5269;51.146;16.986;2023-05-16T05:31:39;12.70;99.90
10443;DHT22;5269;51.146;16.986;2023-05-16T05:34:17;12.90;99.90
10443;DHT22;5269;51.146;16.986;2023-05-16T05:36:47;13.10;99.90
10443;DHT22;5269;51.146;16.986;2023-05-16T05:39:30;13.20;99.90
10443;DHT22;5269;51.146;16.986;2023-05-16T05:42:08;13.30;99.90
10443;DHT22;5269;51.146;16.986;2023-05-16T05:44:36;13.40;99.90
10443;DHT22;5269;51.146;16.986;2023-05-16T05:47:18;13.40;99.90
10443;DHT22;5269;51.146;16.986;2023-05-16T05:49:47;13.40;99.90
10443;DHT22;5269;51.146;16.986;2023-05-16T05:52:20;13.60;99.90
10443;DHT22;5269;51.146;16.986;2023-05-16T05:54:56;13.60;99.90
10443;DHT22;5269;51.146;16.986;2023-05-16T05:57:26;13.70;99.90
10443;DHT22;5269;51.146;16.986;2023-05-16T05:59:59;13.80;99.90
10443;DHT22;5269;51.146;16.986;2023-05-16T06:02:27;13.90;99.90
10443;DHT22;5269;51.146;16.986;2023-05-16T06:05:07;13.90;99.90
10443;DHT22;5269;51.146;16.986;2023-05-16T06:07:37;13.90;99.90
10443;DHT22;5269;51.146;16.986;2023-05-16T06:10:08;13.90;99.90
10443;DHT22;5269;51.146;16.986;2023-05-16T06:12:38;13.90;99.90
10443;DHT22;5269;51.146;16.986;2023-05-16T06:15:09;13.90;99.90
10443;DHT22;5269;51.146;16.986;2023-05-16T06:17:39;14.00;99.90
10443;DHT22;5269;51.146;16.986;2023-05-16T06:20:07;14.00;99.90
10443;DHT22;5269;51.146;16.986;2023-05-16T06:22:40;14.00;99.90
10443;DHT22;5269;51.146;16.986;2023-05-16T06:25:17;14.00;99.90
10443;DHT22;5269;51.146;16.986;2023-05-16T06:27:46;14.00;99.90
10443;DHT22;5269;51.146;16.986;2023-05-16T06:30:13;13.90;99.90
10443;DHT22;5269;51.146;16.986;2023-05-16T06:32:40;13.90;99.90
10443;DHT22;5269;51.146;16.986;2023-05-16T06:35:09;13.90;99.90
10443;DHT22;5269;51.146;16.986;2023-05-16T06:37:39;14.10;99.90
10443;DHT22;5269;51.146;16.986;2023-05-16T06:40:07;14.10;99.90
10443;DHT22;5269;51.146;16.986;2023-05-16T06:42:38;14.10;99.90
10443;DHT22;5269;51.146;16.986;2023-05-16T06:45:09;14.10;99.90
10443;DHT22;5269;51.146;16.986;2023-05-16T06:47:36;14.10;99.90
10443;DHT22;5269;51.146;16.986;2023-05-16T06:50:08;14.20;99.90
10443;DHT22;5269;51.146;16.986;2023-05-16T06:52:38;14.20;99.90
10443;DHT22;5269;51.146;16.986;2023-05-16T06:55:08;14.30;99.90
10443;DHT22;5269;51.146;16.986;2023-05-16T06:57:38;14.30;99.90
10443;DHT22;5269;51.146;16.986;2023-05-16T07:00:06;14.50;99.90
10443;DHT22;5269;51.146;16.986;2023-05-16T07:02:35;14.50;99.90
10443;DHT22;5269;51.146;16.986;2023-05-16T07:05:03;14.70;99.90
10443;DHT22;5269;51.146;16.986;2023-05-16T07:07:38;14.90;99.90
10443;DHT22;5269;51.146;16.986;2023-05-16T07:10:06;14.80;99.90
10443;DHT22;5269;51.146;16.986;2023-05-16T07:12:34;15.00;99.90
10443;DHT22;5269;51.146;16.986;2023-05-16T07:15:10;15.00;99.90
10443;DHT22;5269;51.146;16.986;2023-05-16T07:17:47;15.20;99.90
10443;DHT22;5269;51.146;16.986;2023-05-16T07:20:17;15.30;99.90
10443;DHT22;5269;51.146;16.986;2023-05-16T07:22:49;15.40;99.90
10443;DHT22;5269;51.146;16.986;2023-05-16T07:25:28;15.50;99.90
10443;DHT22;5269;51.146;16.986;2023-05-16T07:27:57;15.60;99.90
10443;DHT22;5269;51.146;16.986;2023-05-16T07:30:37;15.50;99.90
10443;DHT22;5269;51.146;16.986;2023-05-16T07:33:06;15.60;99.90
10443;DHT22;5269;51.146;16.986;2023-05-16T07:35:37;15.70;99.90
10443;DHT22;5269;51.146;16.986;2023-05-16T07:38:07;15.80;99.90
10443;DHT22;5269;51.146;16.986;2023-05-16T07:40:34;15.80;99.90
10443;DHT22;5269;51.146;16.986;2023-05-16T07:43:10;15.70;99.90
10443;DHT22;5269;51.146;16.986;2023-05-16T07:45:47;15.70;99.90
10443;DHT22;5269;51.146;16.986;2023-05-16T07:48:16;15.70;99.90
10443;DHT22;5269;51.146;16.986;2023-05-16T07:50:49;15.70;99.90
10443;DHT22;5269;51.146;16.986;2023-05-16T07:53:16;15.80;99.90
10443;DHT22;5269;51.146;16.986;2023-05-16T07:55:49;15.90;99.90
10443;DHT22;5269;51.146;16.986;2023-05-16T07:58:16;15.90;99.90
10443;DHT22;5269;51.146;16.986;2023-05-16T08:00:48;15.80;99.90
10443;DHT22;5269;51.146;16.986;2023-05-16T08:03:17;15.70;99.90
10443;DHT22;5269;51.146;16.986;2023-05-16T08:05:50;15.60;99.90
10443;DHT22;5269;51.146;16.986;2023-05-16T08:08:27;15.80;99.90
10443;DHT22;5269;51.146;16.986;2023-05-16T08:10:57;15.80;99.90
10443;DHT22;5269;51.146;16.986;2023-05-16T08:13:27;15.80;99.90
10443;DHT22;5269;51.146;16.986;2023-05-16T08:15:58;15.70;99.90
10443;DHT22;5269;51.146;16.986;2023-05-16T08:18:28;15.70;99.90
10443;DHT22;5269;51.146;16.986;2023-05-16T08:20:58;15.90;99.90
10443;DHT22;5269;51.146;16.986;2023-05-16T08:23:28;16.00;99.90
10443;DHT22;5269;51.146;16.986;2023-05-16T08:25:55;16.00;99.90
10443;DHT22;5269;51.146;16.986;2023-05-16T08:28:23;15.80;99.90
10443;DHT22;5269;51.146;16.986;2023-05-16T08:30:50;16.10;99.90
10443;DHT22;5269;51.146;16.986;2023-05-16T08:33:18;16.10;99.90
10443;DHT22;5269;51.146;16.986;2023-05-16T08:35:45;16.20;99.90
10443;DHT22;5269;51.146;16.986;2023-05-16T08:38:13;16.30;1.00
10443;DHT22;5269;51.146;16.986;2023-05-16T08:40:45;16.60;1.30
10443;DHT22;5269;51.146;16.986;2023-05-16T08:43:12;16.80;1.00
10443;DHT22;5269;51.146;16.986;2023-05-16T08:45:39;17.00;99.90
10443;DHT22;5269;51.146;16.986;2023-05-16T08:48:07;17.00;99.90
10443;DHT22;5269;51.146;16.986;2023-05-16T08:50:37;16.90;1.00
10443;DHT22;5269;51.146;16.986;2023-05-16T08:53:07;16.90;1.00
10443;DHT22;5269;51.146;16.986;2023-05-16T08:55:35;16.90;52.50
10443;DHT22;5269;51.146;16.986;2023-05-16T08:58:02;16.80;99.90
10443;DHT22;5269;51.146;16.986;2023-05-16T09:00:30;16.90;99.90
10443;DHT22;5269;51.146;16.986;2023-05-16T09:02:57;16.90;99.90
10443;DHT22;5269;51.146;16.986;2023-05-16T09:05:25;16.90;1.00
10443;DHT22;5269;51.146;16.986;2023-05-16T09:07:57;16.90;1.00
10443;DHT22;5269;51.146;16.986;2023-05-16T09:10:24;17.30;1.00
10443;DHT22;5269;51.146;16.986;2023-05-16T09:12:51;17.10;1.00
10443;DHT22;5269;51.146;16.986;2023-05-16T09:15:19;16.80;1.00
10443;DHT22;5269;51.146;16.986;2023-05-16T09:17:47;16.60;1.00
10443;DHT22;5269;51.146;16.986;2023-05-16T09:20:15;16.60;1.00
10443;DHT22;5269;51.146;16.986;2023-05-16T09:22:50;16.90;98.70
10443;DHT22;5269;51.146;16.986;2023-05-16T09:25:20;17.20;1.00
10443;DHT22;5269;51.146;16.986;2023-05-16T09:27:47;17.40;99.90
10443;DHT22;5269;51.146;16.986;2023-05-16T09:30:14;17.50;1.00
10443;DHT22;5269;51.146;16.986;2023-05-16T09:32:44;17.70;1.00
10443;DHT22;5269;51.146;16.986;2023-05-16T09:35:14;18.00;1.00
10443;DHT22;5269;51.146;16.986;2023-05-16T09:37:50;17.70;99.90
10443;DHT22;5269;51.146;16.986;2023-05-16T09:40:21;17.50;99.90
10443;DHT22;5269;51.146;16.986;2023-05-16T09:43:01;17.30;99.90
10443;DHT22;5269;51.146;16.986;2023-05-16T09:45:29;17.00;1.00
10443;DHT22;5269;51.146;16.986;2023-05-16T09:48:01;17.50;99.90
10443;DHT22;5269;51.146;16.986;2023-05-16T09:50:28;18.10;99.90
10443;DHT22;5269;51.146;16.986;2023-05-16T09:52:56;18.50;1.00
10443;DHT22;5269;51.146;16.986;2023-05-16T09:55:26;18.80;1.00
10443;DHT22;5269;51.146;16.986;2023-05-16T09:57:53;18.80;1.00
10443;DHT22;5269;51.146;16.986;2023-05-16T10:00:20;18.80;99.90
10443;DHT22;5269;51.146;16.986;2023-05-16T10:02:48;18.70;1.00
10443;DHT22;5269;51.146;16.986;2023-05-16T10:05:19;18.60;1.00
10443;DHT22;5269;51.146;16.986;2023-05-16T10:07:48;18.70;1.00
10443;DHT22;5269;51.146;16.986;2023-05-16T10:10:16;18.50;1.00
10443;DHT22;5269;51.146;16.986;2023-05-16T10:12:47;18.50;1.00
10443;DHT22;5269;51.146;16.986;2023-05-16T10:15:17;18.60;1.00
10443;DHT22;5269;51.146;16.986;2023-05-16T10:17:46;18.30;1.00
10443;DHT22;5269;51.146;16.986;2023-05-16T10:20:16;18.10;3.80
10443;DHT22;5269;51.146;16.986;2023-05-16T10:22:46;18.20;7.90
10443;DHT22;5269;51.146;16.986;2023-05-16T10:25:21;18.20;1.00
10443;DHT22;5269;51.146;16.986;2023-05-16T10:27:52;18.40;1.00
10443;DHT22;5269;51.146;16.986;2023-05-16T10:30:21;18.30;99.90
10443;DHT22;5269;51.146;16.986;2023-05-16T10:32:49;17.90;1.00
10443;DHT22;5269;51.146;16.986;2023-05-16T10:35:18;17.70;99.90
10443;DHT22;5269;51.146;16.986;2023-05-16T10:37:49;17.80;99.90
10443;DHT22;5269;51.146;16.986;2023-05-16T10:40:17;18.10;99.90
10443;DHT22;5269;51.146;16.986;2023-05-16T10:42:57;18.60;1.00
10443;DHT22;5269;51.146;16.986;2023-05-16T10:45:24;18.60;1.00
10443;DHT22;5269;51.146;16.986;2023-05-16T10:47:55;18.40;1.00
10443;DHT22;5269;51.146;16.986;2023-05-16T10:50:32;18.20;1.00
10443;DHT22;5269;51.146;16.986;2023-05-16T10:53:18;18.40;1.00
10443;DHT22;5269;51.146;16.986;2023-05-16T10:55:49;18.50;1.00
10443;DHT22;5269;51.146;16.986;2023-05-16T10:58:39;18.50;1.00
10443;DHT22;5269;51.146;16.986;2023-05-16T11:01:20;18.40;86.90
10443;DHT22;5269;51.146;16.986;2023-05-16T11:04:04;18.20;1.00
10443;DHT22;5269;51.146;16.986;2023-05-16T11:06:32;18.00;99.90
10443;DHT22;5269;51.146;16.986;2023-05-16T11:09:17;17.60;99.90
10443;DHT22;5269;51.146;16.986;2023-05-16T11:11:52;17.80;99.90
10443;DHT22;5269;51.146;16.986;2023-05-16T11:14:24;17.80;99.90
10443;DHT22;5269;51.146;16.986;2023-05-16T11:16:55;18.00;99.90
10443;DHT22;5269;51.146;16.986;2023-05-16T11:19:38;17.90;5.40
10443;DHT22;5269;51.146;16.986;2023-05-16T11:22:07;17.50;99.90
10443;DHT22;5269;51.146;16.986;2023-05-16T11:24:34;17.40;99.90
10443;DHT22;5269;51.146;16.986;2023-05-16T11:27:03;17.50;99.90
10443;DHT22;5269;51.146;16.986;2023-05-16T11:29:32;17.50;99.90
10443;DHT22;5269;51.146;16.986;2023-05-16T11:32:00;17.60;1.00
10443;DHT22;5269;51.146;16.986;2023-05-16T11:34:28;17.90;99.90
10443;DHT22;5269;51.146;16.986;2023-05-16T11:36:55;18.20;99.90
10443;DHT22;5269;51.146;16.986;2023-05-16T11:39:22;18.00;1.00
10443;DHT22;5269;51.146;16.986;2023-05-16T11:41:50;17.50;99.90
10443;DHT22;5269;51.146;16.986;2023-05-16T11:44:17;17.40;99.90
10443;DHT22;5269;51.146;16.986;2023-05-16T11:46:45;17.50;99.90
10443;DHT22;5269;51.146;16.986;2023-05-16T11:49:12;17.60;99.90
10443;DHT22;5269;51.146;16.986;2023-05-16T11:51:40;17.80;99.90
10443;DHT22;5269;51.146;16.986;2023-05-16T11:54:09;17.60;99.90
10443;DHT22;5269;51.146;16.986;2023-05-16T11:56:38;17.40;99.90
10443;DHT22;5269;51.146;16.986;2023-05-16T11:59:08;17.60;99.90
10443;DHT22;5269;51.146;16.986;2023-05-16T12:01:37;17.60;99.90
10443;DHT22;5269;51.146;16.986;2023-05-16T12:04:08;17.30;99.90
10443;DHT22;5269;51.146;16.986;2023-05-16T12:06:36;17.30;99.90
10443;DHT22;5269;51.146;16.986;2023-05-16T12:09:06;17.50;1.00
10443;DHT22;5269;51.146;16.986;2023-05-16T12:11:36;17.50;99.90
10443;DHT22;5269;51.146;16.986;2023-05-16T12:14:03;17.30;99.90
10443;DHT22;5269;51.146;16.986;2023-05-16T12:16:31;17.30;1.00
10443;DHT22;5269;51.146;16.986;2023-05-16T12:19:00;17.30;1.00
10443;DHT22;5269;51.146;16.986;2023-05-16T12:21:28;17.10;1.00
10443;DHT22;5269;51.146;16.986;2023-05-16T12:23:55;17.00;45.30
10443;DHT22;5269;51.146;16.986;2023-05-16T12:26:27;16.70;1.00
10443;DHT22;5269;51.146;16.986;2023-05-16T12:28:58;16.60;1.00
10443;DHT22;5269;51.146;16.986;2023-05-16T12:31:28;16.80;12.10
10443;DHT22;5269;51.146;16.986;2023-05-16T12:33:56;16.60;1.00
10443;DHT22;5269;51.146;16.986;2023-05-16T12:36:24;16.70;1.00
10443;DHT22;5269;51.146;16.986;2023-05-16T12:38:55;16.70;99.90
10443;DHT22;5269;51.146;16.986;2023-05-16T12:41:25;16.70;1.00
10443;DHT22;5269;51.146;16.986;2023-05-16T12:44:05;16.60;88.60
10443;DHT22;5269;51.146;16.986;2023-05-16T12:46:33;16.60;1.00
10443;DHT22;5269;51.146;16.986;2023-05-16T12:49:01;16.40;40.50
10443;DHT22;5269;51.146;16.986;2023-05-16T12:51:30;16.50;37.70
10443;DHT22;5269;51.146;16.986;2023-05-16T12:54:07;16.40;99.90
10443;DHT22;5269;51.146;16.986;2023-05-16T12:56:34;16.50;99.90
10443;DHT22;5269;51.146;16.986;2023-05-16T12:59:01;16.50;1.00
10443;DHT22;5269;51.146;16.986;2023-05-16T13:01:28;16.20;99.90
10443;DHT22;5269;51.146;16.986;2023-05-16T13:03:56;16.20;99.90
10443;DHT22;5269;51.146;16.986;2023-05-16T13:06:23;16.20;1.00
10443;DHT22;5269;51.146;16.986;2023-05-16T13:08:51;16.00;1.00
10443;DHT22;5269;51.146;16.986;2023-05-16T13:11:19;15.90;1.00
10443;DHT22;5269;51.146;16.986;2023-05-16T13:13:46;16.00;1.00
10443;DHT22;5269;51.146;16.986;2023-05-16T13:16:13;16.00;1.00
10443;DHT22;5269;51.146;16.986;2023-05-16T13:18:40;15.80;1.00
10443;DHT22;5269;51.146;16.986;2023-05-16T13:21:06;15.90;1.00
10443;DHT22;5269;51.146;16.986;2023-05-16T13:23:33;15.80;1.00
10443;DHT22;5269;51.146;16.986;2023-05-16T13:26:00;15.90;1.00
10443;DHT22;5269;51.146;16.986;2023-05-16T13:28:28;15.80;99.90
10443;DHT22;5269;51.146;16.986;2023-05-16T13:30:56;15.70;1.00
10443;DHT22;5269;51.146;16.986;2023-05-16T13:33:23;15.70;99.90
10443;DHT22;5269;51.146;16.986;2023-05-16T13:35:50;15.80;99.90
10443;DHT22;5269;51.146;16.986;2023-05-16T13:38:17;15.60;1.00
10443;DHT22;5269;51.146;16.986;2023-05-16T13:40:45;15.20;1.00
10443;DHT22;5269;51.146;16.986;2023-05-16T13:43:11;15.10;1.00
10443;DHT22;5269;51.146;16.986;2023-05-16T13:45:41;15.10;1.00
10443;DHT22;5269;51.146;16.986;2023-05-16T13:48:09;15.00;1.00
10443;DHT22;5269;51.146;16.986;2023-05-16T13:50:36;15.00;1.00
10443;DHT22;5269;51.146;16.986;2023-05-16T13:53:04;14.90;1.00
10443;DHT22;5269;51.146;16.986;2023-05-16T13:55:33;14.70;1.00
10443;DHT22;5269;51.146;16.986;2023-05-16T13:58:00;14.70;99.90
10443;DHT22;5269;51.146;16.986;2023-05-16T14:00:27;14.60;1.00
10443;DHT22;5269;51.146;16.986;2023-05-16T14:02:58;14.90;99.90
10443;DHT22;5269;51.146;16.986;2023-05-16T14:05:27;14.80;1.00
10443;DHT22;5269;51.146;16.986;2023-05-16T14:07:58;14.70;1.00
10443;DHT22;5269;51.146;16.986;2023-05-16T14:10:26;14.60;99.90
10443;DHT22;5269;51.146;16.986;2023-05-16T14:12:59;14.50;49.30
10443;DHT22;5269;51.146;16.986;2023-05-16T14:15:29;14.40;99.90
10443;DHT22;5269;51.146;16.986;2023-05-16T14:17:58;14.40;99.90
10443;DHT22;5269;51.146;16.986;2023-05-16T14:20:30;14.40;99.90
10443;DHT22;5269;51.146;16.986;2023-05-16T14:22:57;14.50;99.90
10443;DHT22;5269;51.146;16.986;2023-05-16T14:25:29;14.50;99.90
10443;DHT22;5269;51.146;16.986;2023-05-16T14:27:59;14.30;99.90
10443;DHT22;5269;51.146;16.986;2023-05-16T14:30:26;14.20;1.00
10443;DHT22;5269;51.146;16.986;2023-05-16T14:32:54;14.20;99.90
10443;DHT22;5269;51.146;16.986;2023-05-16T14:35:26;14.10;1.00
10443;DHT22;5269;51.146;16.986;2023-05-16T14:37:55;14.00;1.00
10443;DHT22;5269;51.146;16.986;2023-05-16T14:40:22;14.10;99.90
10443;DHT22;5269;51.146;16.986;2023-05-16T14:42:49;14.00;1.00
10443;DHT22;5269;51.146;16.986;2023-05-16T14:45:18;14.10;1.00
10443;DHT22;5269;51.146;16.986;2023-05-16T14:47:51;14.20;1.00
10443;DHT22;5269;51.146;16.986;2023-05-16T14:50:18;14.30;99.90
10443;DHT22;5269;51.146;16.986;2023-05-16T14:52:48;14.40;1.00
10443;DHT22;5269;51.146;16.986;2023-05-16T14:55:17;14.20;1.00
10443;DHT22;5269;51.146;16.986;2023-05-16T14:57:44;14.00;99.90
10443;DHT22;5269;51.146;16.986;2023-05-16T15:00:13;14.20;99.90
10443;DHT22;5269;51.146;16.986;2023-05-16T15:02:41;14.00;99.90
10443;DHT22;5269;51.146;16.986;2023-05-16T15:05:09;13.90;99.90
10443;DHT22;5269;51.146;16.986;2023-05-16T15:07:41;14.10;99.90
10443;DHT22;5269;51.146;16.986;2023-05-16T15:10:12;14.20;99.90
10443;DHT22;5269;51.146;16.986;2023-05-16T15:12:39;14.20;1.00
10443;DHT22;5269;51.146;16.986;2023-05-16T15:15:08;14.20;95.50
10443;DHT22;5269;51.146;16.986;2023-05-16T15:17:36;14.10;99.90
10443;DHT22;5269;51.146;16.986;2023-05-16T15:20:05;14.10;1.00
10443;DHT22;5269;51.146;16.986;2023-05-16T15:22:33;14.10;1.00
10443;DHT22;5269;51.146;16.986;2023-05-16T15:25:04;14.10;1.00
10443;DHT22;5269;51.146;16.986;2023-05-16T15:27:37;14.00;1.00
10443;DHT22;5269;51.146;16.986;2023-05-16T15:30:07;13.90;99.90
10443;DHT22;5269;51.146;16.986;2023-05-16T15:32:40;13.90;99.90
10443;DHT22;5269;51.146;16.986;2023-05-16T15:35:10;13.80;1.00
10443;DHT22;5269;51.146;16.986;2023-05-16T15:37:49;13.70;1.00
10443;DHT22;5269;51.146;16.986;2023-05-16T15:40:20;13.50;99.90
10443;DHT22;5269;51.146;16.986;2023-05-16T15:42:48;13.60;99.90
10443;DHT22;5269;51.146;16.986;2023-05-16T15:45:18;13.60;99.90
10443;DHT22;5269;51.146;16.986;2023-05-16T15:47:51;13.50;1.00
10443;DHT22;5269;51.146;16.986;2023-05-16T15:50:20;13.40;1.00
10443;DHT22;5269;51.146;16.986;2023-05-16T15:52:47;13.40;99.90
10443;DHT22;5269;51.146;16.986;2023-05-16T15:55:19;13.40;99.90